Cincinnati Municipal Airport Lunken Field
KLUK : now visible

Airfield :











YOU CAN JOIN US ON...

 
LOGIN :

Register | Disclaimer

   EN    FR    IT 

 









Legend :    VFR   Marginal VFR   IFR   Intensive IFR   Very Intensive IFR
Visi :
Ceiling :
>= 8 km
>= 3000ft
5 to 8 km
1000 to 3000 ft
1500m to 5 km
500 to 1000 ft
800 to 1500m
200 to 500 ft
< 800m
< 200 ft
Symbols :   Thunderstorms  Fog  Heavy snow  Heavy precipitations  Wind > 20 kt







- Airport Elevation : 483 ft
- IATA code : LUK


KLUK - Cincinnati Municipal Lunken Field

CURRENT METAR :
  • 210153Z VRB04KT 10SM OVC022 07/04 A2986 RMK AO2 SLP114 T00670039

EXPIRED METARs :
  • 210053Z 28004KT 10SM OVC019 07/04 A2983 RMK AO2 SLP103 T00670039
  • 202353Z 28007KT 10SM OVC018 07/04 A2980 RMK AO2 SLP093 60001 T00720039 10089 20067 53025

TAF KLUK
Valid from the 21 at 00:00 until the 22 at 00:00 UTC


202327Z 2100/2124 31006KT P6SM -RA OVC016
FM210200 30005KT P6SM OVC016
FM210900 00000KT 4SM BR BKN012
FM211300 27004KT P6SM BKN016
FM211500 30004KT P6SM BKN026
FM211700 32004KT P6SM SCT040
KZID FIR / North America



MET'MAP, your aeronautical weather chart ! - Copyright ORBIFLY December 2007 - Disclaimer

ORBIFLY MET'MAP TEAM :

Programming & Development : Alexandra Zaïnal
Concept & Development : Baudouin d'Aumeries
Co-Development & Prog : Marc-Olivier Méhu
Technical & hardware support : Manuel Goepfert

Contact : metmap@orbifly.com




SOURCES & CREDITS :

   NOAA       Earth
Advisory